< Typhoon 199328 1994 Season Typhoon 199402 >
Typhoon 199401 (OWEN)
General InformationTrack Information on Google MapsDetailed Wind InformationList of All Images || Disaster Info.ResourceGoogle EarthGE AnimationAtom FeedGeoJSON
Detalied Best Track (Time Zone = UTC)
Year Month Day Hour Lat. Long. Pressure (hPa) Wind (kt) Class Image Chart
1994 3 31 12 10.8 134.8 1004 0 2 Image Chart
1994 3 31 18 11.1 133.9 1002 0 2 Image Chart
1994 4 1 00 11.3 133.0 1000 35 3 Image Chart
1994 4 1 06 11.5 132.1 998 35 3 Image Chart
1994 4 1 12 11.6 131.6 998 35 3 Image Chart
1994 4 1 18 11.6 131.1 996 35 3 Image Chart
1994 4 2 00 11.6 130.6 996 35 3 Image Chart
1994 4 2 06 11.4 129.8 996 35 3 Image Chart
1994 4 2 12 11.2 129.2 994 40 3 Image Chart
1994 4 2 18 11.0 128.7 992 45 3 Image Chart
1994 4 3 00 10.8 128.2 990 50 4 Image Chart
1994 4 3 06 10.6 127.6 990 50 4 Image Chart
1994 4 3 12 10.4 127.0 990 50 4 Image Chart
1994 4 3 18 10.3 126.4 985 55 4 Image Chart
1994 4 4 00 10.2 125.9 980 60 4 Image Chart
1994 4 4 06 10.4 124.4 980 60 4 Image Chart
1994 4 4 12 10.6 123.3 985 55 4 Image Chart
1994 4 4 18 10.6 122.1 990 50 4 Image Chart
1994 4 5 00 10.6 121.2 990 50 4 Image Chart
1994 4 5 06 10.8 120.4 992 45 3 Image Chart
1994 4 5 12 11.3 119.7 994 45 3 Image Chart
1994 4 5 18 11.7 118.7 996 40 3 Image Chart
1994 4 6 00 11.9 117.7 996 40 3 Image Chart
1994 4 6 06 12.2 117.0 994 40 3 Image Chart
1994 4 6 12 12.5 116.4 992 45 3 Image Chart
1994 4 6 18 12.9 116.0 992 45 3 Image Chart
1994 4 7 00 13.5 115.5 992 45 3 Image Chart
1994 4 7 06 14.4 115.5 992 45 3 Image Chart
1994 4 7 12 15.0 115.6 992 45 3 Image Chart
1994 4 7 18 15.7 116.0 992 45 3 Image Chart
1994 4 8 00 16.2 116.3 992 45 3 Image Chart
1994 4 8 06 16.5 116.5 996 40 3 Image Chart
1994 4 8 12 17.0 117.0 998 35 3 Image Chart
1994 4 8 18 17.5 117.5 1000 35 3 Image Chart
1994 4 9 00 18.0 118.0 1002 0 2 Image Chart
1994 4 9 06 18.5 118.5 1006 0 2 Image Chart
Japan Meteorological Agency Best Track Data | Correction Date : 1995-01-30
< Typhoon 199328 1994 Season Typhoon 199402 >

Help